createdAt,value
2019-01-09T00:01:08.383Z,5.30
2019-01-09T00:03:48.044Z,5.10
2019-01-09T00:06:28.449Z,5.00
2019-01-09T00:09:08.316Z,5.10
2019-01-09T00:11:48.296Z,5.10
2019-01-09T00:14:28.115Z,5.20
2019-01-09T00:17:08.249Z,5.20
2019-01-09T00:19:48.160Z,5.20
2019-01-09T00:22:28.251Z,5.10
2019-01-09T00:25:08.131Z,5.00
2019-01-09T00:27:48.038Z,5.00
2019-01-09T00:30:28.158Z,5.00
2019-01-09T00:33:08.050Z,5.00
2019-01-09T00:35:48.142Z,5.00
2019-01-09T00:38:28.188Z,5.00
2019-01-09T00:41:08.205Z,4.90
2019-01-09T00:43:48.255Z,5.00
2019-01-09T00:46:28.303Z,5.00
2019-01-09T00:49:08.355Z,5.00
2019-01-09T00:51:48.468Z,5.00
2019-01-09T00:54:16.084Z,5.00
2019-01-09T00:57:03.144Z,5.00
2019-01-09T00:59:43.399Z,5.00
2019-01-09T01:02:23.426Z,5.10
2019-01-09T01:05:03.375Z,5.00
2019-01-09T01:07:43.301Z,5.10
2019-01-09T01:10:23.127Z,4.90
2019-01-09T01:13:03.196Z,5.10
2019-01-09T01:15:43.297Z,5.10
2019-01-09T01:18:23.742Z,5.10
2019-01-09T01:21:03.603Z,5.10
2019-01-09T01:23:43.654Z,5.20
2019-01-09T01:26:23.674Z,5.10
2019-01-09T01:29:03.695Z,5.20
2019-01-09T01:31:44.049Z,5.20
2019-01-09T01:34:24.652Z,5.30
2019-01-09T01:37:04.657Z,5.20
2019-01-09T01:39:44.795Z,4.90
2019-01-09T01:42:25.045Z,5.00
2019-01-09T01:45:05.064Z,4.80
2019-01-09T01:47:45.348Z,4.70
2019-01-09T01:50:51.820Z,4.60
2019-01-09T01:53:31.593Z,4.60
2019-01-09T01:56:11.679Z,4.40
2019-01-09T01:58:51.757Z,4.60
2019-01-09T02:01:31.875Z,4.60
2019-01-09T02:04:11.812Z,4.60
2019-01-09T02:06:51.856Z,4.70
2019-01-09T02:09:31.875Z,4.70
2019-01-09T02:12:11.952Z,4.70
2019-01-09T02:14:51.990Z,4.70
2019-01-09T02:17:32.237Z,4.70
2019-01-09T02:20:12.277Z,4.90
2019-01-09T02:22:52.103Z,4.60
2019-01-09T02:25:32.000Z,4.60
2019-01-09T02:28:11.932Z,4.60
2019-01-09T02:37:02.142Z,4.50
2019-01-09T02:39:42.176Z,4.50
2019-01-09T02:42:22.137Z,4.50
2019-01-09T02:45:02.086Z,4.60
2019-01-09T02:47:42.103Z,4.70
2019-01-09T02:53:04.971Z,4.90
2019-01-09T02:55:44.881Z,4.90
2019-01-09T02:58:25.000Z,5.00
2019-01-09T03:01:04.899Z,5.20
2019-01-09T03:03:45.168Z,5.00
2019-01-09T03:06:25.162Z,5.20
2019-01-09T03:09:05.137Z,5.30
2019-01-09T03:11:45.106Z,5.40
2019-01-09T03:14:25.111Z,5.40
2019-01-09T03:17:05.132Z,5.40
2019-01-09T03:19:45.105Z,5.40
2019-01-09T03:22:25.171Z,5.30
2019-01-09T03:25:05.039Z,5.40
2019-01-09T03:27:44.986Z,5.30
2019-01-09T03:30:25.223Z,5.30
2019-01-09T03:33:05.290Z,5.20
2019-01-09T03:35:45.257Z,5.30
2019-01-09T03:38:25.743Z,5.30
2019-01-09T03:41:06.214Z,5.30
2019-01-09T03:43:46.155Z,5.30
2019-01-09T03:46:26.248Z,5.30
2019-01-09T03:49:06.114Z,5.20
2019-01-09T03:51:46.135Z,5.20
2019-01-09T03:54:26.211Z,5.10
2019-01-09T03:57:06.277Z,5.10
2019-01-09T03:59:33.894Z,5.20
2019-01-09T04:02:20.927Z,5.10
2019-01-09T04:05:07.925Z,5.10
2019-01-09T04:07:48.248Z,5.10
2019-01-09T04:10:28.650Z,5.10
2019-01-09T04:13:08.784Z,5.20
2019-01-09T04:15:48.852Z,5.20
2019-01-09T04:18:29.149Z,5.20
2019-01-09T04:21:09.164Z,5.20
2019-01-09T04:23:49.037Z,5.10
2019-01-09T04:26:28.951Z,5.00
2019-01-09T04:29:08.826Z,4.90
2019-01-09T04:31:49.054Z,4.80
2019-01-09T04:34:29.290Z,4.70
2019-01-09T04:37:09.386Z,4.70
2019-01-09T04:39:49.497Z,4.70
2019-01-09T04:42:29.250Z,4.80
2019-01-09T04:45:09.343Z,4.80
2019-01-09T04:47:50.016Z,4.80
2019-01-09T04:50:30.036Z,4.80
2019-01-09T04:53:10.218Z,4.70
2019-01-09T04:55:50.280Z,4.50
2019-01-09T04:58:30.352Z,4.40
2019-01-09T05:01:10.287Z,4.30
2019-01-09T05:03:50.586Z,4.20
2019-01-09T05:06:30.454Z,4.20
2019-01-09T05:09:10.700Z,4.10
2019-01-09T05:11:50.870Z,4.10
2019-01-09T05:14:30.907Z,4.10
2019-01-09T05:17:10.578Z,4.00
2019-01-09T05:19:50.693Z,4.10
2019-01-09T05:22:30.761Z,4.00
2019-01-09T05:27:59.684Z,3.80
2019-01-09T05:30:39.665Z,3.80
2019-01-09T05:33:19.616Z,3.70
2019-01-09T05:35:59.666Z,3.80
2019-01-09T05:38:39.993Z,3.70
2019-01-09T05:41:19.838Z,3.70
2019-01-09T05:43:59.843Z,3.70
2019-01-09T05:46:39.953Z,3.70
2019-01-09T05:49:19.818Z,3.70
2019-01-09T05:51:59.732Z,3.60
2019-01-09T05:54:41.553Z,3.80
2019-01-09T05:57:21.882Z,3.80
2019-01-09T06:00:01.848Z,3.80
2019-01-09T06:05:54.032Z,3.60
2019-01-09T06:08:35.742Z,3.60
2019-01-09T06:11:16.186Z,3.60
2019-01-09T06:13:56.141Z,3.70
2019-01-09T06:16:36.123Z,3.70
2019-01-09T06:19:15.971Z,3.70
2019-01-09T06:21:56.094Z,3.90
2019-01-09T06:24:36.442Z,4.00
2019-01-09T06:27:17.563Z,3.90
2019-01-09T06:29:58.053Z,4.00
2019-01-09T06:32:38.114Z,4.10
2019-01-09T06:38:07.752Z,4.30
2019-01-09T06:43:30.282Z,4.20
2019-01-09T06:48:59.485Z,4.20
2019-01-09T06:51:39.524Z,4.30
2019-01-09T06:54:19.407Z,4.20
2019-01-09T06:56:59.246Z,4.20
2019-01-09T06:59:39.274Z,4.10
2019-01-09T07:02:19.364Z,4.10
2019-01-09T07:04:59.446Z,4.20
2019-01-09T07:10:25.322Z,4.20
2019-01-09T07:13:05.441Z,4.20
2019-01-09T07:18:31.399Z,4.30
2019-01-09T07:21:11.491Z,4.30
2019-01-09T07:23:51.840Z,4.70
2019-01-09T07:26:31.813Z,4.80
2019-01-09T07:29:11.815Z,4.80
2019-01-09T07:31:51.995Z,4.90
2019-01-09T07:34:32.150Z,4.80
2019-01-09T07:39:55.501Z,4.80
2019-01-09T07:42:35.500Z,4.90
2019-01-09T07:45:15.359Z,4.90
2019-01-09T07:47:55.092Z,4.90
2019-01-09T07:50:35.069Z,4.90
2019-01-09T07:56:01.389Z,4.80
2019-01-09T07:58:41.494Z,4.90
2019-01-09T08:01:21.665Z,4.80
2019-01-09T08:03:49.231Z,4.80
2019-01-09T08:06:36.262Z,4.90
2019-01-09T08:09:23.298Z,4.70
2019-01-09T08:12:03.512Z,5.00
2019-01-09T08:14:43.261Z,4.90
2019-01-09T08:17:23.179Z,5.00
2019-01-09T08:20:03.183Z,5.00
2019-01-09T08:22:43.441Z,5.00
2019-01-09T08:25:23.290Z,5.10
2019-01-09T08:28:03.820Z,5.10
2019-01-09T08:33:26.503Z,5.10
2019-01-09T08:36:06.278Z,5.20
2019-01-09T08:38:46.287Z,5.20
2019-01-09T08:41:26.532Z,5.30
2019-01-09T08:44:07.650Z,5.30
2019-01-09T08:46:48.011Z,5.40
2019-01-09T08:49:28.019Z,5.30
2019-01-09T08:52:08.061Z,5.30
2019-01-09T08:54:50.008Z,5.20
2019-01-09T08:57:30.181Z,5.20
2019-01-09T08:59:57.772Z,5.00
2019-01-09T09:02:44.777Z,5.10
2019-01-09T09:05:25.410Z,5.20
2019-01-09T09:08:11.854Z,5.20
2019-01-09T09:10:47.491Z,5.10
2019-01-09T09:13:27.641Z,5.10
2019-01-09T09:16:07.880Z,5.10
2019-01-09T09:18:47.808Z,5.20
2019-01-09T09:21:27.825Z,5.20
2019-01-09T09:24:07.834Z,5.10
2019-01-09T09:26:47.847Z,5.20
2019-01-09T09:29:27.730Z,5.20
2019-01-09T09:32:07.954Z,5.20
2019-01-09T09:34:47.817Z,5.20
2019-01-09T09:42:47.254Z,5.20
2019-01-09T09:45:34.290Z,5.30
2019-01-09T09:48:13.886Z,5.30
2019-01-09T09:50:53.728Z,5.40
2019-01-09T09:53:21.312Z,5.40
2019-01-09T09:56:08.297Z,5.30
2019-01-09T09:58:48.123Z,5.40
2019-01-09T10:01:28.228Z,5.40
2019-01-09T10:04:08.137Z,5.40
2019-01-09T10:06:48.312Z,5.40
2019-01-09T10:09:15.942Z,5.40
2019-01-09T10:12:02.962Z,5.40
2019-01-09T10:14:43.343Z,5.40
2019-01-09T10:17:23.525Z,5.50
2019-01-09T10:20:03.724Z,5.40
2019-01-09T10:22:31.353Z,5.60
2019-01-09T10:24:58.931Z,5.40
2019-01-09T10:27:45.991Z,5.40
2019-01-09T10:30:33.030Z,5.40
2019-01-09T10:33:13.309Z,5.60
2019-01-09T10:35:53.382Z,5.60
2019-01-09T10:38:38.000Z,5.70
2019-01-09T10:41:15.607Z,5.70
2019-01-09T10:43:55.681Z,5.50
2019-01-09T10:46:35.654Z,5.80
2019-01-09T10:49:15.423Z,5.80
2019-01-09T10:51:55.539Z,5.90
2019-01-09T10:54:35.489Z,5.90
2019-01-09T10:57:15.410Z,5.90
2019-01-09T10:59:55.441Z,6.00
2019-01-09T11:02:35.434Z,6.10
2019-01-09T11:05:15.637Z,6.00
2019-01-09T11:07:55.667Z,6.00
2019-01-09T11:10:35.861Z,6.10
2019-01-09T11:13:17.728Z,6.10
2019-01-09T11:15:59.218Z,6.10
2019-01-09T11:18:38.944Z,6.20
2019-01-09T11:21:19.052Z,6.30
2019-01-09T11:23:58.854Z,6.20
2019-01-09T11:26:38.942Z,6.20
2019-01-09T11:29:18.753Z,6.40
2019-01-09T11:31:58.918Z,6.50
2019-01-09T11:34:38.835Z,6.60
2019-01-09T11:37:19.054Z,6.70
2019-01-09T11:39:59.056Z,6.70
2019-01-09T11:42:40.572Z,6.70
2019-01-09T11:45:20.197Z,6.70
2019-01-09T11:48:00.398Z,6.80
2019-01-09T11:53:29.572Z,6.80
2019-01-09T11:56:09.515Z,6.90
2019-01-09T11:58:49.560Z,6.80
2019-01-09T12:01:17.429Z,6.80
2019-01-09T12:04:04.458Z,6.90
2019-01-09T12:06:51.497Z,6.90
2019-01-09T12:09:32.469Z,6.90
2019-01-09T12:12:12.247Z,6.90
2019-01-09T12:14:52.328Z,6.80
2019-01-09T12:17:32.339Z,6.90
2019-01-09T12:20:12.228Z,7.00
2019-01-09T12:22:52.029Z,7.20
2019-01-09T12:25:32.102Z,7.00
2019-01-09T12:27:59.775Z,7.10
2019-01-09T12:30:46.830Z,7.10
2019-01-09T12:33:33.904Z,7.10
2019-01-09T12:36:20.958Z,7.00
2019-01-09T12:39:01.263Z,7.00
2019-01-09T12:41:42.618Z,7.10
2019-01-09T12:47:14.887Z,7.20
2019-01-09T12:52:28.927Z,7.20
2019-01-09T12:55:15.943Z,7.20
2019-01-09T12:57:56.930Z,7.30
2019-01-09T13:00:36.564Z,7.40
2019-01-09T13:03:16.527Z,7.40
2019-01-09T13:05:56.591Z,7.40
2019-01-09T13:08:36.772Z,7.40
2019-01-09T13:11:16.886Z,7.40
2019-01-09T13:13:57.114Z,7.50
2019-01-09T13:16:37.107Z,7.40
2019-01-09T13:19:17.118Z,7.40
2019-01-09T13:21:57.071Z,7.40
2019-01-09T13:24:37.126Z,7.50
2019-01-09T13:27:17.118Z,7.50
2019-01-09T13:29:57.474Z,7.40
2019-01-09T13:32:37.510Z,7.60
2019-01-09T13:35:17.587Z,7.50
2019-01-09T13:37:57.313Z,7.50
2019-01-09T13:40:37.412Z,7.60
2019-01-09T13:43:17.520Z,7.80
2019-01-09T13:45:45.136Z,7.90
2019-01-09T13:48:32.139Z,7.50
2019-01-09T13:51:12.423Z,7.30
2019-01-09T13:53:52.672Z,7.30
2019-01-09T13:56:32.821Z,7.30
2019-01-09T13:59:12.674Z,7.20
2019-01-09T14:01:52.620Z,7.10
2019-01-09T14:04:32.526Z,7.40
2019-01-09T14:07:12.204Z,7.40
2019-01-09T14:09:52.050Z,7.50
2019-01-09T14:12:19.710Z,7.50
2019-01-09T14:15:07.955Z,7.50
2019-01-09T14:17:48.019Z,7.50
2019-01-09T14:20:30.445Z,7.40
2019-01-09T14:23:10.420Z,7.40
2019-01-09T14:25:50.408Z,7.30
2019-01-09T14:28:33.662Z,7.30
2019-01-09T14:31:18.339Z,7.40
2019-01-09T14:33:58.680Z,7.30
2019-01-09T14:36:38.905Z,7.30
2019-01-09T14:39:19.088Z,7.30
2019-01-09T14:41:58.926Z,7.30
2019-01-09T14:44:38.921Z,7.30
2019-01-09T14:47:19.054Z,7.30
2019-01-09T14:49:59.035Z,7.30
2019-01-09T14:52:39.131Z,7.30
2019-01-09T14:55:19.104Z,7.30
2019-01-09T14:57:58.851Z,7.30
2019-01-09T15:00:39.031Z,7.20
2019-01-09T15:03:18.984Z,7.20
2019-01-09T15:05:59.050Z,7.20
2019-01-09T15:08:38.796Z,7.20
2019-01-09T15:11:18.883Z,7.10
2019-01-09T15:13:58.993Z,7.10
2019-01-09T15:16:39.755Z,7.10
2019-01-09T15:19:20.121Z,7.00
2019-01-09T15:22:00.273Z,7.00
2019-01-09T15:24:40.421Z,7.00
2019-01-09T15:27:20.451Z,6.90
2019-01-09T15:30:00.543Z,6.70
2019-01-09T15:32:40.589Z,6.80
2019-01-09T15:35:20.436Z,6.70
2019-01-09T15:38:00.330Z,6.70
2019-01-09T15:40:40.251Z,6.70
2019-01-09T15:43:20.530Z,6.70
2019-01-09T15:46:00.491Z,6.60
2019-01-09T15:48:40.366Z,6.50
2019-01-09T15:51:20.351Z,6.50
2019-01-09T15:54:00.521Z,6.60
2019-01-09T15:56:40.579Z,6.40
2019-01-09T15:59:20.660Z,6.50
2019-01-09T16:02:00.779Z,6.40
2019-01-09T16:04:40.892Z,6.50
2019-01-09T16:07:20.888Z,6.50
2019-01-09T16:10:00.792Z,6.40
2019-01-09T16:12:41.053Z,6.40
2019-01-09T16:15:21.205Z,6.40
2019-01-09T16:18:01.194Z,6.20
2019-01-09T16:20:41.674Z,6.30
2019-01-09T16:23:21.427Z,6.30
2019-01-09T16:26:01.380Z,6.20
2019-01-09T16:28:41.374Z,6.20
2019-01-09T16:31:21.452Z,6.10
2019-01-09T16:34:01.530Z,5.90
2019-01-09T16:36:41.291Z,6.00
2019-01-09T16:39:21.169Z,6.00
2019-01-09T16:42:01.149Z,5.90
2019-01-09T16:44:41.293Z,5.80
2019-01-09T16:47:21.263Z,5.80
2019-01-09T16:50:01.067Z,5.60
2019-01-09T16:52:41.166Z,5.70
2019-01-09T16:55:21.155Z,5.60
2019-01-09T16:58:01.505Z,5.60
2019-01-09T17:00:41.557Z,5.50
2019-01-09T17:03:21.533Z,5.50
2019-01-09T17:06:01.582Z,5.60
2019-01-09T17:08:41.675Z,5.60
2019-01-09T17:11:09.350Z,5.50
2019-01-09T17:13:56.352Z,5.50
2019-01-09T17:16:43.371Z,5.40
2019-01-09T17:19:11.056Z,5.30
2019-01-09T17:21:58.129Z,5.40
2019-01-09T17:24:38.598Z,5.40
2019-01-09T17:27:18.525Z,5.40
2019-01-09T17:29:58.409Z,5.20
2019-01-09T17:32:26.049Z,5.20
2019-01-09T17:35:14.979Z,5.20
2019-01-09T17:38:02.041Z,5.10
2019-01-09T17:40:49.177Z,5.20
2019-01-09T17:43:29.297Z,5.20
2019-01-09T17:46:10.762Z,5.10
2019-01-09T17:48:51.400Z,5.20
2019-01-09T17:51:31.361Z,5.00
2019-01-09T17:56:55.719Z,5.10
2019-01-09T17:59:35.490Z,5.00
2019-01-09T18:02:15.561Z,5.00
2019-01-09T18:04:55.648Z,4.90
2019-01-09T18:07:37.149Z,4.80
2019-01-09T18:10:16.852Z,4.90
2019-01-09T18:12:56.793Z,4.80
2019-01-09T18:15:37.727Z,4.80
2019-01-09T18:18:17.824Z,4.80
2019-01-09T18:20:57.658Z,4.80
2019-01-09T18:23:37.731Z,4.80
2019-01-09T18:26:17.941Z,4.80
2019-01-09T18:28:57.651Z,4.70
2019-01-09T18:34:23.729Z,4.70
2019-01-09T18:37:03.730Z,4.60
2019-01-09T18:40:04.861Z,4.60
2019-01-09T18:43:11.275Z,4.60
2019-01-09T18:45:52.071Z,4.60
2019-01-09T18:48:31.971Z,4.60
2019-01-09T18:51:11.991Z,4.60
2019-01-09T18:53:51.951Z,4.60
2019-01-09T18:56:32.163Z,4.60
2019-01-09T18:59:12.019Z,4.60
2019-01-09T19:01:52.105Z,4.50
2019-01-09T19:04:32.139Z,4.50
2019-01-09T19:06:59.741Z,4.50
2019-01-09T19:09:28.043Z,4.50
2019-01-09T19:12:15.100Z,4.40
2019-01-09T19:15:02.129Z,4.40
2019-01-09T19:17:41.715Z,4.40
2019-01-09T19:20:21.678Z,4.30
2019-01-09T19:23:01.736Z,4.30
2019-01-09T19:25:41.622Z,4.30
2019-01-09T19:28:21.703Z,4.20
2019-01-09T19:31:01.758Z,4.20
2019-01-09T19:33:29.380Z,4.10
2019-01-09T19:36:16.447Z,4.00
2019-01-09T19:38:56.773Z,4.10
2019-01-09T19:41:36.777Z,4.00
2019-01-09T19:44:17.096Z,4.00
2019-01-09T19:46:57.082Z,4.00
2019-01-09T19:49:37.210Z,4.00
2019-01-09T19:52:17.186Z,4.00
2019-01-09T19:54:57.290Z,4.00
2019-01-09T19:57:37.364Z,4.00
2019-01-09T20:00:17.492Z,3.90
2019-01-09T20:02:57.299Z,4.00
2019-01-09T20:05:37.318Z,4.00
2019-01-09T20:08:17.288Z,3.90
2019-01-09T20:10:45.084Z,3.90
2019-01-09T20:13:32.064Z,4.00
2019-01-09T20:15:59.696Z,4.00
2019-01-09T20:18:39.292Z,4.00
2019-01-09T20:21:19.202Z,4.00
2019-01-09T20:23:59.265Z,4.10
2019-01-09T20:26:39.088Z,4.10
2019-01-09T20:29:19.621Z,4.10
2019-01-09T20:31:59.473Z,4.10
2019-01-09T20:34:39.537Z,3.90
2019-01-09T20:37:19.617Z,4.00
2019-01-09T20:39:59.552Z,4.00
2019-01-09T20:42:39.505Z,4.00
2019-01-09T20:45:19.623Z,4.00
2019-01-09T20:47:59.715Z,4.00
2019-01-09T20:50:39.467Z,4.10
2019-01-09T20:53:19.523Z,4.10
2019-01-09T20:55:59.500Z,4.10
2019-01-09T20:58:39.530Z,4.00
2019-01-09T21:01:19.598Z,4.10
2019-01-09T21:03:59.524Z,4.00
2019-01-09T21:06:39.482Z,4.00
2019-01-09T21:09:19.486Z,4.00
2019-01-09T21:11:59.641Z,3.90
2019-01-09T21:14:39.690Z,4.00
2019-01-09T21:17:19.819Z,4.00
2019-01-09T21:19:59.842Z,3.80
2019-01-09T21:22:39.774Z,3.90
2019-01-09T21:25:19.909Z,4.00
2019-01-09T21:27:59.773Z,4.00
2019-01-09T21:30:40.011Z,3.90
2019-01-09T21:33:19.998Z,3.90
2019-01-09T21:36:00.105Z,3.80
2019-01-09T21:38:40.096Z,3.80
2019-01-09T21:41:20.087Z,3.90
2019-01-09T21:44:00.150Z,3.80
2019-01-09T21:46:46.121Z,3.70
2019-01-09T21:49:22.068Z,3.70
2019-01-09T21:52:01.876Z,3.70
2019-01-09T21:54:41.964Z,3.90
2019-01-09T21:57:22.008Z,3.80
2019-01-09T22:00:01.960Z,3.80
2019-01-09T22:02:42.104Z,3.80
2019-01-09T22:05:21.925Z,3.60
2019-01-09T22:08:02.180Z,3.70
2019-01-09T22:10:42.166Z,3.60
2019-01-09T22:13:22.319Z,3.40
2019-01-09T22:16:02.357Z,3.50
2019-01-09T22:18:42.316Z,3.60
2019-01-09T22:21:22.112Z,3.50
2019-01-09T22:24:01.998Z,3.40
2019-01-09T22:26:41.968Z,3.40
2019-01-09T22:29:21.891Z,3.40
2019-01-09T22:32:01.993Z,3.40
2019-01-09T22:34:41.919Z,3.20
2019-01-09T22:37:21.965Z,3.30
2019-01-09T22:40:01.659Z,3.20
2019-01-09T22:42:41.697Z,3.20
2019-01-09T22:45:21.699Z,3.20
2019-01-09T22:48:01.738Z,3.20
2019-01-09T22:50:41.689Z,3.10
2019-01-09T22:53:21.509Z,3.10
2019-01-09T22:56:01.616Z,3.10
2019-01-09T22:58:41.740Z,3.20
2019-01-09T23:01:29.558Z,3.10
2019-01-09T23:04:16.705Z,3.00
2019-01-09T23:06:57.090Z,2.90
2019-01-09T23:09:36.700Z,2.90
2019-01-09T23:12:04.541Z,2.90
2019-01-09T23:14:51.553Z,2.90
2019-01-09T23:17:31.460Z,2.80
2019-01-09T23:20:11.521Z,2.70
2019-01-09T23:22:51.419Z,2.60
2019-01-09T23:25:19.122Z,2.50
2019-01-09T23:28:06.265Z,2.50
2019-01-09T23:30:53.286Z,2.40
2019-01-09T23:33:33.363Z,2.30
2019-01-09T23:36:13.435Z,2.00
2019-01-09T23:38:53.525Z,2.10
2019-01-09T23:41:33.586Z,2.00
2019-01-09T23:44:13.750Z,2.20
2019-01-09T23:46:53.824Z,2.00
2019-01-09T23:49:33.821Z,2.00
2019-01-09T23:52:14.985Z,2.00
2019-01-09T23:54:54.709Z,1.90
2019-01-09T23:57:34.666Z,1.90
